Time;durP1;ratioP1;P1;durP2;ratioP2;P2;SDS_P1;SDS_P2;PMS_P1;PMS_P2;Temp;Humidity;BMP_temperature;BMP_pressure;BME280_temperature;BME280_humidity;BME280_pressure;Samples;Min_cycle;Max_cycle;Signal;HPM_P1;HPM_P2
2023/03/01 00:00:50;;;;;;;11.30;5.30;;;;;;;6.29;97.77;98442.50;5076935;28;20544;-94
2023/03/01 00:03:16;;;;;;;11.93;6.13;;;;;;;6.27;97.00;98441.66;5078954;28;20052;-94
2023/03/01 00:05:44;;;;;;;11.13;5.80;;;;;;;6.31;97.86;98445.09;5076811;28;20386;-92
2023/03/01 00:08:10;;;;;;;11.00;5.80;;;;;;;6.29;99.05;98421.38;5075106;28;20102;-92
2023/03/01 00:10:37;;;;;;;9.80;5.70;;;;;;;6.30;98.80;98431.03;5077452;28;20037;-93
2023/03/01 00:13:05;;;;;;;9.95;5.32;;;;;;;6.34;97.28;98410.75;5080801;28;20048;-91
2023/03/01 00:15:30;;;;;;;11.55;5.72;;;;;;;6.36;96.62;98409.81;5074332;28;20121;-94
2023/03/01 00:17:56;;;;;;;7.90;5.10;;;;;;;6.39;97.44;98414.19;5078798;28;20048;-93
2023/03/01 00:20:22;;;;;;;10.55;5.80;;;;;;;6.31;97.92;98418.69;5073716;28;20056;-92
2023/03/01 00:22:48;;;;;;;10.48;5.93;;;;;;;6.42;98.50;98423.81;5074648;28;20506;-93
2023/03/01 00:25:14;;;;;;;9.48;5.85;;;;;;;6.29;98.47;98413.47;5078815;28;20049;-93
2023/03/01 00:27:42;;;;;;;8.23;4.80;;;;;;;6.42;96.91;98419.44;5075793;28;20048;-94
2023/03/01 00:30:10;;;;;;;10.10;5.57;;;;;;;6.33;97.87;98404.59;5074139;28;20044;-93
2023/03/01 00:32:36;;;;;;;7.25;4.50;;;;;;;6.38;96.67;98401.88;5079003;28;20075;-93
2023/03/01 00:35:02;;;;;;;9.05;5.38;;;;;;;6.46;97.27;98417.59;5082584;28;20060;-93
2023/03/01 00:37:28;;;;;;;9.15;4.80;;;;;;;6.47;95.35;98382.38;5072665;28;20409;-92
2023/03/01 00:39:54;;;;;;;7.85;4.50;;;;;;;6.44;95.65;98391.22;5075679;28;20131;-91
2023/03/01 00:42:19;;;;;;;9.05;4.88;;;;;;;6.32;95.52;98370.28;5079489;28;20124;-92
2023/03/01 00:44:47;;;;;;;8.13;4.50;;;;;;;6.34;95.30;98387.84;5074194;28;20045;-93
2023/03/01 00:47:13;;;;;;;9.80;4.63;;;;;;;6.34;95.90;98381.69;5072811;28;20049;-91
2023/03/01 00:49:39;;;;;;;8.05;4.38;;;;;;;6.54;95.62;98407.78;5076987;28;20073;-90
2023/03/01 00:52:05;;;;;;;8.20;4.45;;;;;;;6.50;94.57;98396.38;5075577;28;20068;-91
2023/03/01 00:54:31;;;;;;;7.60;4.00;;;;;;;6.49;95.09;98404.34;5078469;28;20045;-92
2023/03/01 00:56:57;;;;;;;7.50;4.43;;;;;;;6.35;95.06;98386.06;5084027;28;20041;-91
2023/03/01 00:59:23;;;;;;;7.25;4.22;;;;;;;6.46;95.20;98400.00;5080439;28;20397;-92
2023/03/01 01:01:50;;;;;;;7.40;4.05;;;;;;;6.44;95.55;98387.69;5076263;28;20044;-92
2023/03/01 01:04:16;;;;;;;6.35;4.00;;;;;;;6.45;95.56;98373.59;5075293;28;20064;-94
2023/03/01 01:06:44;;;;;;;8.07;3.92;;;;;;;6.41;95.17;98364.84;5077345;28;20521;-94
2023/03/01 01:09:16;;;;;;;6.40;3.63;;;;;;;6.47;95.41;98377.09;5077299;28;20049;-90
2023/03/01 01:11:43;;;;;;;7.90;3.83;;;;;;;6.42;94.68;98355.16;5077620;28;20037;-91
2023/03/01 01:14:09;;;;;;;6.45;3.38;;;;;;;6.25;96.49;98334.31;5083730;28;20044;-91
2023/03/01 01:16:35;;;;;;;6.88;3.78;;;;;;;6.38;95.62;98354.34;5080094;28;20043;-94
2023/03/01 01:19:03;;;;;;;4.55;2.92;;;;;;;6.53;92.71;98334.72;5079938;28;20036;-90
2023/03/01 01:21:29;;;;;;;6.38;3.38;;;;;;;6.62;92.47;98353.03;5077378;28;20036;-93
2023/03/01 01:23:55;;;;;;;7.45;3.67;;;;;;;6.58;92.54;98325.78;5081928;28;20048;-92
2023/03/01 01:26:23;;;;;;;5.60;3.50;;;;;;;6.64;93.30;98324.81;5076541;28;20128;-91
2023/03/01 01:28:49;;;;;;;5.43;3.22;;;;;;;6.54;91.96;98299.47;5079492;28;20052;-93
2023/03/01 01:31:15;;;;;;;5.10;3.30;;;;;;;6.71;92.25;98333.50;5078630;28;20047;-93
2023/03/01 01:33:42;;;;;;;5.32;3.03;;;;;;;6.61;91.18;98292.28;5079931;28;20406;-92
2023/03/01 01:36:10;;;;;;;5.15;3.08;;;;;;;6.67;91.10;98294.81;5084565;28;20041;-91
2023/03/01 01:38:37;;;;;;;5.18;3.35;;;;;;;6.54;91.23;98294.19;5077131;28;20559;-91
2023/03/01 01:41:04;;;;;;;5.07;3.28;;;;;;;6.72;90.79;98317.63;5085465;28;20040;-93
2023/03/01 01:43:34;;;;;;;5.75;3.30;;;;;;;6.62;90.99;98300.19;5083991;28;20036;-92
2023/03/01 01:46:03;;;;;;;5.75;3.08;;;;;;;6.60;91.41;98295.84;5078049;28;20036;-91
2023/03/01 01:48:40;;;;;;;5.88;3.50;;;;;;;6.52;91.42;98294.19;5078961;28;20072;-91
2023/03/01 01:51:08;;;;;;;5.47;3.25;;;;;;;6.49;91.04;98294.28;5080115;28;20048;-93
2023/03/01 01:53:37;;;;;;;6.43;3.40;;;;;;;6.65;91.64;98309.84;5081747;28;20036;-91
2023/03/01 01:56:06;;;;;;;6.03;3.47;;;;;;;6.58;91.68;98319.66;5075304;28;20094;-91
2023/03/01 01:58:32;;;;;;;5.00;3.00;;;;;;;6.47;92.16;98295.22;5081666;28;21387;-92
2023/03/01 02:01:00;;;;;;;5.80;3.28;;;;;;;6.65;91.18;98321.28;5075259;28;20135;-90
2023/03/01 02:03:33;;;;;;;6.28;3.20;;;;;;;6.57;90.67;98291.47;5083923;28;20050;-91
2023/03/01 02:06:03;;;;;;;4.80;3.17;;;;;;;6.58;90.22;98294.09;5077900;28;20052;-91
2023/03/01 02:08:32;;;;;;;7.00;2.75;;;;;;;6.72;89.95;98314.09;5076284;28;20040;-94
2023/03/01 02:11:00;;;;;;;6.25;3.35;;;;;;;6.62;90.93;98309.91;5080167;28;20040;-95
2023/03/01 02:13:27;;;;;;;4.40;2.47;;;;;;;6.74;89.18;98313.19;5085862;28;20047;-92
2023/03/01 02:15:53;;;;;;;4.95;2.60;;;;;;;6.71;89.75;98302.66;5077934;28;20056;-92
2023/03/01 02:18:23;;;;;;;4.07;2.60;;;;;;;6.65;90.92;98286.91;5077535;28;20040;-91
2023/03/01 02:21:01;;;;;;;4.40;2.90;;;;;;;6.53;91.59;98280.13;5082151;28;20497;-91
2023/03/01 02:23:28;;;;;;;5.35;2.80;;;;;;;6.44;94.92;98266.19;5078464;28;20036;-92
2023/03/01 02:26:01;;;;;;;5.32;2.90;;;;;;;6.37;95.84;98270.72;5080672;28;20444;-91
2023/03/01 02:28:32;;;;;;;5.72;2.72;;;;;;;6.41;94.77;98267.13;5080121;28;20036;-92
2023/03/01 02:33:58;;;;;;;5.25;2.55;;;;;;;6.60;93.50;98299.34;5113065;27;20369;-93
2023/03/01 02:36:28;;;;;;;5.88;2.70;;;;;;;6.62;91.68;98283.50;5112717;28;20036;-93
2023/03/01 02:39:00;;;;;;;4.15;2.60;;;;;;;6.62;92.25;98289.63;5112668;28;20043;-94
2023/03/01 02:41:30;;;;;;;3.50;2.42;;;;;;;6.53;91.90;98268.69;5112681;28;20044;-94
2023/03/01 02:43:57;;;;;;;5.18;2.50;;;;;;;6.65;90.80;98289.56;5112579;28;20043;-93
2023/03/01 02:46:25;;;;;;;3.78;2.58;;;;;;;6.72;91.36;98291.22;5111317;28;20042;-95
2023/03/01 02:48:53;;;;;;;4.03;2.38;;;;;;;6.75;89.79;98291.13;5111856;28;20063;-93
2023/03/01 02:51:43;;;;;;;4.15;2.50;;;;;;;6.67;90.22;98276.34;5111807;28;20040;-93
2023/03/01 02:54:20;;;;;;;4.30;2.45;;;;;;;6.75;90.16;98280.56;5107465;28;20040;-94
2023/03/01 02:56:48;;;;;;;4.80;2.58;;;;;;;6.66;90.86;98280.75;5111791;28;20126;-93
2023/03/01 02:59:17;;;;;;;4.17;2.30;;;;;;;6.58;91.35;98261.53;5112197;28;20097;-94
2023/03/01 03:01:43;;;;;;;4.00;2.50;;;;;;;6.73;89.11;98277.09;5110228;28;20044;-91
2023/03/01 03:04:11;;;;;;;4.40;2.55;;;;;;;6.66;90.01;98261.38;5111319;28;20048;-92
2023/03/01 03:06:38;;;;;;;4.75;2.80;;;;;;;6.64;90.24;98260.56;5111777;28;20614;-92
2023/03/01 03:09:04;;;;;;;4.28;2.58;;;;;;;6.64;90.95;98274.63;5112291;28;20055;-92
2023/03/01 03:11:32;;;;;;;5.10;2.58;;;;;;;6.58;91.22;98270.31;5111969;28;20036;-93
2023/03/01 03:13:58;;;;;;;4.38;2.70;;;;;;;6.62;92.52;98280.84;5112820;28;20043;-94
2023/03/01 03:16:24;;;;;;;4.00;2.80;;;;;;;6.52;89.82;98259.88;5110876;28;20039;-92
2023/03/01 03:18:50;;;;;;;5.75;2.92;;;;;;;6.46;90.19;98245.91;5111362;28;20451;-93
2023/03/01 03:21:16;;;;;;;6.20;3.20;;;;;;;6.50;90.76;98261.66;5112041;28;20042;-95
2023/03/01 03:23:44;;;;;;;5.63;3.13;;;;;;;6.42;90.84;98249.50;5112123;28;20520;-94
2023/03/01 03:26:13;;;;;;;6.78;3.58;;;;;;;6.44;91.10;98247.69;5110195;28;20040;-94
2023/03/01 03:28:39;;;;;;;9.18;3.83;;;;;;;6.40;91.02;98253.94;5110889;28;20036;-93
2023/03/01 03:31:06;;;;;;;6.28;3.72;;;;;;;6.36;92.13;98251.38;5110591;28;20036;-94
2023/03/01 03:33:33;;;;;;;5.30;2.95;;;;;;;6.33;93.40;98240.88;5112037;28;20044;-91
2023/03/01 03:35:59;;;;;;;5.93;3.30;;;;;;;6.34;93.87;98254.94;5111696;28;20121;-94
2023/03/01 03:38:25;;;;;;;5.35;3.38;;;;;;;6.21;94.59;98230.53;5111281;28;20054;-93
2023/03/01 03:41:02;;;;;;;7.18;3.90;;;;;;;6.16;95.33;98232.41;5110805;28;20043;-93
2023/03/01 03:43:29;;;;;;;6.85;3.72;;;;;;;6.11;94.95;98223.66;5107347;28;20490;-93
2023/03/01 03:45:56;;;;;;;7.82;4.32;;;;;;;6.14;95.50;98221.84;5097968;28;20036;-94
2023/03/01 03:48:23;;;;;;;12.85;6.13;;;;;;;6.22;97.00;98244.59;5096982;28;20048;-93
2023/03/01 03:50:51;;;;;;;8.18;4.60;;;;;;;6.11;96.24;98219.25;5097833;28;20048;-93
2023/03/01 03:53:17;;;;;;;8.75;4.70;;;;;;;6.20;96.42;98241.97;5096894;28;20036;-93
2023/03/01 03:55:44;;;;;;;5.63;3.25;;;;;;;6.12;93.76;98228.06;5097834;28;20054;-95
2023/03/01 03:58:11;;;;;;;5.38;3.47;;;;;;;6.26;93.33;98251.56;5097508;28;20036;-93
2023/03/01 04:00:39;;;;;;;6.43;3.08;;;;;;;6.29;94.93;98257.66;5095965;28;20040;-94
2023/03/01 04:03:05;;;;;;;6.57;3.30;;;;;;;6.27;93.58;98245.41;5093609;28;20032;-93
2023/03/01 04:05:31;;;;;;;6.63;3.35;;;;;;;6.20;94.15;98220.84;5093957;28;20036;-93
2023/03/01 04:08:01;;;;;;;5.60;3.20;;;;;;;6.16;94.52;98220.06;5097289;28;20063;-94
2023/03/01 04:10:28;;;;;;;6.78;3.55;;;;;;;6.28;94.78;98229.50;5096540;28;20056;-93
2023/03/01 04:12:57;;;;;;;4.80;3.20;;;;;;;6.23;93.77;98215.53;5098100;28;20032;-93
2023/03/01 04:15:26;;;;;;;5.25;2.90;;;;;;;6.29;95.04;98227.72;5096106;28;20039;-92
2023/03/01 04:17:54;;;;;;;8.23;3.22;;;;;;;6.28;95.17;98226.88;5097921;28;20062;-94
2023/03/01 04:20:24;;;;;;;5.25;3.05;;;;;;;6.22;94.50;98234.91;5092744;28;20037;-94
2023/03/01 04:22:51;;;;;;;5.53;3.38;;;;;;;6.13;92.42;98228.00;5096876;28;20044;-91
2023/03/01 04:25:18;;;;;;;5.18;3.30;;;;;;;6.35;94.11;98273.41;5096106;28;20109;-95
2023/03/01 04:27:44;;;;;;;5.15;3.13;;;;;;;6.27;94.15;98254.19;5096988;28;20063;-94
2023/03/01 04:30:10;;;;;;;4.80;2.58;;;;;;;6.27;95.29;98246.25;5096684;28;20043;-92
2023/03/01 04:32:38;;;;;;;5.10;3.10;;;;;;;6.31;94.40;98245.31;5095017;28;20131;-93
2023/03/01 04:35:04;;;;;;;4.68;2.75;;;;;;;6.32;93.11;98265.53;5095916;28;20070;-94
2023/03/01 04:37:30;;;;;;;6.03;2.97;;;;;;;6.32;92.76;98254.97;5096483;28;20040;-94
2023/03/01 04:39:56;;;;;;;6.13;3.30;;;;;;;6.31;94.31;98261.16;5096805;28;20391;-93
2023/03/01 04:42:22;;;;;;;4.70;2.85;;;;;;;6.41;94.78;98288.25;5096517;28;20135;-92
2023/03/01 04:44:51;;;;;;;5.57;3.40;;;;;;;6.31;95.63;98281.38;5096405;28;20082;-93
2023/03/01 04:47:18;;;;;;;6.55;2.90;;;;;;;6.35;91.69;98268.13;5092325;28;20036;-93
2023/03/01 04:49:45;;;;;;;4.97;3.10;;;;;;;6.38;92.50;98291.81;5096575;28;20061;-94
2023/03/01 04:52:11;;;;;;;5.13;3.17;;;;;;;6.32;93.28;98275.22;5095000;28;20036;-92
2023/03/01 04:54:37;;;;;;;5.07;3.05;;;;;;;6.30;94.27;98290.22;5095975;28;20047;-93
2023/03/01 04:57:03;;;;;;;6.85;3.80;;;;;;;6.46;93.23;98310.19;5094977;28;20062;-93
2023/03/01 04:59:29;;;;;;;15.13;7.18;;;;;;;6.55;93.92;98325.00;5095427;28;20040;-94
2023/03/01 05:01:56;;;;;;;8.52;5.25;;;;;;;6.42;93.86;98312.88;5094066;28;20044;-94
2023/03/01 05:04:23;;;;;;;13.18;7.57;;;;;;;6.43;94.01;98320.78;5096288;28;20044;-93
2023/03/01 05:06:50;;;;;;;8.95;4.70;;;;;;;6.45;94.78;98331.34;5095547;28;20066;-94
2023/03/01 05:09:17;;;;;;;7.80;4.10;;;;;;;6.29;95.41;98318.41;5093845;28;20067;-94
2023/03/01 05:11:43;;;;;;;6.75;4.15;;;;;;;6.33;96.14;98333.31;5094829;28;20139;-92
2023/03/01 05:14:09;;;;;;;6.57;3.22;;;;;;;6.41;95.89;98345.50;5095784;28;20036;-93
2023/03/01 05:16:36;;;;;;;4.25;2.65;;;;;;;6.42;95.08;98353.41;5094104;28;20062;-93
2023/03/01 05:19:11;;;;;;;5.63;3.20;;;;;;;6.29;96.13;98343.91;5094346;28;20047;-93
2023/03/01 05:22:01;;;;;;;5.60;3.20;;;;;;;6.29;97.97;98349.19;5095802;28;20036;-93
2023/03/01 05:24:24;;;;;;;6.15;3.60;;;;;;;6.20;99.13;98344.94;5082282;28;20480;-94
2023/03/01 05:26:52;;;;;;;4.57;3.00;;;;;;;6.14;99.84;98347.69;5090155;28;20493;-94
2023/03/01 05:29:18;;;;;;;6.00;2.70;;;;;;;6.12;100.00;98352.13;5096107;28;20059;-94
2023/03/01 05:31:43;;;;;;;5.47;2.83;;;;;;;6.01;100.00;98348.75;5095150;28;20040;-93
2023/03/01 05:34:12;;;;;;;5.07;2.95;;;;;;;5.95;100.00;98355.91;5096598;28;20036;-94
2023/03/01 05:36:39;;;;;;;5.20;2.50;;;;;;;5.89;100.00;98360.34;5100146;28;20536;-95
2023/03/01 05:39:06;;;;;;;4.15;2.10;;;;;;;5.90;100.00;98378.81;5100828;28;20044;-93
2023/03/01 05:41:33;;;;;;;4.28;1.98;;;;;;;5.92;100.00;98382.31;5099546;28;20036;-94
2023/03/01 05:43:59;;;;;;;3.42;2.38;;;;;;;5.75;100.00;98376.41;5099011;28;20040;-93
2023/03/01 05:46:25;;;;;;;3.75;2.03;;;;;;;5.77;100.00;98390.44;5097560;28;20059;-91
2023/03/01 05:48:51;;;;;;;5.32;2.20;;;;;;;5.58;100.00;98371.34;5095503;28;20138;-96
2023/03/01 05:51:17;;;;;;;4.22;2.30;;;;;;;5.65;100.00;98398.50;5096015;28;20127;-94
2023/03/01 05:53:43;;;;;;;2.63;1.85;;;;;;;5.52;100.00;98380.19;5095225;28;20055;-92
2023/03/01 05:56:09;;;;;;;4.65;2.10;;;;;;;5.62;100.00;98396.78;5095145;28;20040;-94
2023/03/01 05:58:38;;;;;;;2.47;1.67;;;;;;;5.48;100.00;98375.00;5095212;28;20498;-93
2023/03/01 06:01:04;;;;;;;;;;;;;;;5.63;100.00;98406.44;5094887;28;20040;-93
2023/03/01 06:03:30;;;;;;;2.95;1.70;;;;;;;5.51;100.00;98396.94;5094897;28;20017;-93
2023/03/01 06:05:56;;;;;;;2.70;1.90;;;;;;;5.43;100.00;98385.59;5095288;28;20040;-93
2023/03/01 06:08:24;;;;;;;2.72;1.88;;;;;;;5.41;100.00;98392.66;5094366;28;20405;-93
2023/03/01 06:10:50;;;;;;;2.00;1.60;;;;;;;5.25;100.00;98385.84;5095022;28;20150;-93
2023/03/01 06:13:16;;;;;;;3.30;1.95;;;;;;;5.34;100.00;98426.16;5094222;28;20086;-93
2023/03/01 06:15:43;;;;;;;3.78;2.00;;;;;;;5.18;100.00;98392.06;5093204;28;20039;-92
2023/03/01 06:18:09;;;;;;;2.97;1.70;;;;;;;5.14;100.00;98400.00;5094361;28;20066;-92
2023/03/01 06:20:35;;;;;;;2.70;1.80;;;;;;;5.08;100.00;98397.44;5094432;28;20423;-92
2023/03/01 06:23:01;;;;;;;3.83;1.70;;;;;;;5.07;100.00;98387.78;5092967;28;20119;-93
2023/03/01 06:25:27;;;;;;;2.40;1.70;;;;;;;5.05;100.00;98384.31;5093821;28;20044;-92
2023/03/01 06:27:53;;;;;;;1.83;1.65;;;;;;;5.13;100.00;98406.16;5093992;28;20051;-91
2023/03/01 06:30:21;;;;;;;1.73;1.60;;;;;;;5.20;100.00;98414.00;5093770;28;20043;-92
2023/03/01 06:32:49;;;;;;;2.05;1.52;;;;;;;5.26;100.00;98428.00;5094013;28;20073;-95
2023/03/01 06:35:17;;;;;;;2.35;1.65;;;;;;;5.28;100.00;98425.34;5096567;28;20039;-92
2023/03/01 06:37:44;;;;;;;2.75;1.75;;;;;;;5.24;100.00;98416.59;5097281;28;20111;-93
2023/03/01 06:40:11;;;;;;;2.00;1.73;;;;;;;5.19;100.00;98410.50;5093322;28;20036;-93
2023/03/01 06:42:38;;;;;;;2.17;1.90;;;;;;;5.03;100.00;98412.44;5095426;28;20496;-92
2023/03/01 06:45:05;;;;;;;2.20;1.73;;;;;;;5.06;100.00;98414.16;5090293;28;20152;-94
2023/03/01 06:47:32;;;;;;;2.33;1.55;;;;;;;4.92;100.00;98407.28;5095897;28;20505;-93
2023/03/01 06:50:00;;;;;;;1.50;1.35;;;;;;;5.19;100.00;98436.00;5096210;28;20044;-94
2023/03/01 06:52:26;;;;;;;2.08;1.40;;;;;;;5.20;100.00;98424.53;5094970;28;20044;-93
2023/03/01 06:54:52;;;;;;;1.70;1.40;;;;;;;4.97;100.00;98396.69;5096503;28;20044;-93
2023/03/01 06:57:18;;;;;;;1.40;1.30;;;;;;;5.05;100.00;98418.56;5095254;28;20067;-93
2023/03/01 06:59:44;;;;;;;2.55;1.50;;;;;;;4.91;100.00;98416.06;5094563;28;20040;-94
2023/03/01 07:02:11;;;;;;;2.40;1.50;;;;;;;4.90;100.00;98421.34;5094779;28;20036;-93
2023/03/01 07:04:38;;;;;;;1.45;1.33;;;;;;;4.94;100.00;98413.41;5094434;28;20042;-93
2023/03/01 07:07:05;;;;;;;3.15;1.50;;;;;;;4.96;100.00;98423.91;5095335;28;20140;-92
2023/03/01 07:09:31;;;;;;;2.03;1.42;;;;;;;4.80;100.00;98404.75;5095651;28;20040;-94
2023/03/01 07:11:57;;;;;;;2.17;1.50;;;;;;;4.81;100.00;98413.53;5100223;28;20044;-94
2023/03/01 07:14:25;;;;;;;2.83;1.95;;;;;;;4.60;100.00;98396.16;5098926;28;20040;-92
2023/03/01 07:16:51;;;;;;;2.20;1.65;;;;;;;4.58;100.00;98408.50;5096249;28;20044;-93
2023/03/01 07:19:17;;;;;;;2.67;1.75;;;;;;;4.60;100.00;98412.84;5096286;28;20044;-93
2023/03/01 07:21:43;;;;;;;3.20;1.80;;;;;;;4.69;100.00;98436.47;5099714;28;20142;-92
2023/03/01 07:24:10;;;;;;;1.75;1.50;;;;;;;4.70;100.00;98421.53;5099275;28;20036;-93
2023/03/01 07:26:37;;;;;;;4.30;2.03;;;;;;;4.73;100.00;98427.66;5097932;28;20095;-93
2023/03/01 07:29:04;;;;;;;2.58;1.60;;;;;;;4.55;100.00;98396.22;5097815;28;20574;-92
2023/03/01 07:31:31;;;;;;;2.55;1.70;;;;;;;4.61;100.00;98405.81;5096468;28;20031;-93
2023/03/01 07:33:56;;;;;;;2.65;1.73;;;;;;;4.78;100.00;98424.13;5099187;28;20032;-94
2023/03/01 07:36:23;;;;;;;3.60;1.83;;;;;;;4.79;100.00;98421.44;5097760;28;20139;-92
2023/03/01 07:38:49;;;;;;;1.70;1.60;;;;;;;4.76;100.00;98417.97;5098334;28;20118;-92
2023/03/01 07:41:16;;;;;;;4.28;1.88;;;;;;;4.86;100.00;98425.78;5100083;28;20048;-92
2023/03/01 07:43:42;;;;;;;2.22;1.70;;;;;;;4.94;100.00;98420.41;5099031;28;20068;-93
2023/03/01 07:46:08;;;;;;;3.05;1.92;;;;;;;4.97;100.00;98425.69;5097732;28;20563;-94
2023/03/01 07:48:34;;;;;;;2.92;1.80;;;;;;;4.97;100.00;98420.41;5098601;28;20409;-94
2023/03/01 07:51:00;;;;;;;3.40;1.88;;;;;;;4.92;100.00;98409.03;5097668;28;20486;-93
2023/03/01 07:53:26;;;;;;;2.83;2.00;;;;;;;4.99;100.00;98410.72;5097771;28;20123;-92
2023/03/01 07:56:01;;;;;;;3.05;1.83;;;;;;;5.06;100.00;98425.56;5096999;28;20040;-92
2023/03/01 07:58:28;;;;;;;3.42;1.80;;;;;;;4.97;100.00;98420.41;5129627;27;20036;-92
2023/03/01 08:00:54;;;;;;;2.72;1.60;;;;;;;5.11;100.00;98428.16;5096231;28;20052;-94
2023/03/01 08:03:20;;;;;;;3.40;2.00;;;;;;;5.08;100.00;98428.19;5097830;28;20132;-92
2023/03/01 08:05:46;;;;;;;2.60;1.70;;;;;;;5.10;100.00;98426.44;5098904;28;20428;-92
2023/03/01 08:08:11;;;;;;;3.78;2.10;;;;;;;5.19;100.00;98436.00;5098496;28;20585;-93
2023/03/01 08:10:37;;;;;;;11.43;4.68;;;;;;;5.09;100.00;98425.53;5099462;28;20521;-95
2023/03/01 08:13:03;;;;;;;10.30;4.55;;;;;;;5.05;100.00;98421.22;5098421;28;20044;-91
2023/03/01 08:15:31;;;;;;;8.82;4.20;;;;;;;5.15;100.00;98435.16;5097273;28;20457;-93
2023/03/01 08:17:57;;;;;;;3.17;1.92;;;;;;;5.07;100.00;98431.72;5098725;28;20497;-93
2023/03/01 08:20:23;;;;;;;3.05;1.80;;;;;;;5.07;100.00;98432.56;5098184;28;20101;-92
2023/03/01 08:22:48;;;;;;;3.90;1.83;;;;;;;5.02;100.00;98417.72;5098822;28;20048;-95
2023/03/01 08:25:14;;;;;;;4.70;2.70;;;;;;;5.19;100.00;98442.13;5098728;28;20047;-94
2023/03/01 08:27:40;;;;;;;4.47;2.90;;;;;;;5.10;100.00;98440.47;5098768;28;20105;-93
2023/03/01 08:30:08;;;;;;;3.60;2.28;;;;;;;5.01;100.00;98421.22;5097516;28;20073;-95
2023/03/01 08:32:38;;;;;;;3.40;2.20;;;;;;;5.10;100.00;98448.38;5098767;28;20047;-95
2023/03/01 08:35:05;;;;;;;5.25;3.28;;;;;;;4.96;100.00;98431.81;5099867;28;20046;-94
2023/03/01 08:37:32;;;;;;;4.75;2.97;;;;;;;4.86;100.00;98414.38;5099176;28;20497;-93
2023/03/01 08:39:58;;;;;;;3.88;2.90;;;;;;;4.98;100.00;98435.31;5099150;28;20107;-95
2023/03/01 08:42:24;;;;;;;8.13;4.15;;;;;;;4.99;100.00;98438.81;5101649;28;20036;-94
2023/03/01 08:44:50;;;;;;;6.15;4.38;;;;;;;4.93;100.00;98429.22;5101975;28;20104;-93
2023/03/01 08:47:17;;;;;;;7.25;4.88;;;;;;;4.97;100.00;98430.09;5104698;28;20039;-93
2023/03/01 08:49:45;;;;;;;11.20;5.03;;;;;;;4.97;100.00;98430.09;5102535;28;20056;-93
2023/03/01 08:52:11;;;;;;;8.82;5.72;;;;;;;5.01;100.00;98426.50;5103145;28;20131;-93
2023/03/01 08:54:37;;;;;;;10.73;5.10;;;;;;;5.13;100.00;98442.19;5103704;28;20063;-93
2023/03/01 08:57:03;;;;;;;5.25;3.53;;;;;;;5.13;100.00;98442.19;5103777;28;20061;-94
2023/03/01 08:59:29;;;;;;;3.88;2.30;;;;;;;5.15;100.00;98449.19;5107266;28;20509;-94
2023/03/01 09:01:56;;;;;;;2.38;1.70;;;;;;;4.81;100.00;98414.41;5105141;28;20043;-95
2023/03/01 09:04:24;;;;;;;2.22;1.63;;;;;;;4.81;100.00;98424.94;5102756;28;20497;-95
2023/03/01 09:06:51;;;;;;;3.03;2.05;;;;;;;4.87;100.00;98424.88;5099396;28;20044;-93
2023/03/01 09:09:17;;;;;;;2.58;1.85;;;;;;;4.95;100.00;98438.00;5098005;28;20040;-94
2023/03/01 09:11:45;;;;;;;3.65;2.10;;;;;;;5.13;100.00;98453.59;5097924;28;20047;-93
2023/03/01 09:14:12;;;;;;;2.83;1.80;;;;;;;5.33;100.00;98450.78;5099456;28;20401;-94
2023/03/01 09:16:39;;;;;;;2.17;1.73;;;;;;;5.21;100.00;98444.75;5098249;28;20044;-94
2023/03/01 09:19:05;;;;;;;2.25;1.70;;;;;;;5.15;100.00;98459.72;5098604;28;20050;-94
2023/03/01 09:21:31;;;;;;;1.67;1.58;;;;;;;5.20;100.00;98456.19;5101204;28;20111;-95
2023/03/01 09:23:59;;;;;;;3.60;2.38;;;;;;;4.96;100.00;98460.81;5099963;28;20067;-95
2023/03/01 09:26:25;;;;;;;2.90;1.80;;;;;;;4.67;100.00;98464.59;5101044;28;20048;-93
2023/03/01 09:28:52;;;;;;;2.53;1.85;;;;;;;4.54;100.00;98452.41;5098770;28;20050;-93
2023/03/01 09:31:20;;;;;;;2.15;1.70;;;;;;;4.35;100.00;98446.41;5100408;28;20052;-94
2023/03/01 09:33:48;;;;;;;1.83;1.48;;;;;;;4.59;100.00;98440.06;5101576;28;20056;-93
2023/03/01 09:36:16;;;;;;;1.65;1.55;;;;;;;4.59;100.00;98458.50;5102365;28;20135;-95
2023/03/01 09:38:43;;;;;;;1.67;1.40;;;;;;;4.51;100.00;98439.25;5100706;28;20044;-95
2023/03/01 09:41:26;;;;;;;1.50;1.38;;;;;;;4.61;100.00;98469.91;5100057;28;20056;-94
2023/03/01 09:43:57;;;;;;;2.08;1.60;;;;;;;4.44;100.00;98453.34;5098786;28;20039;-93
2023/03/01 09:46:25;;;;;;;3.85;1.70;;;;;;;4.27;100.00;98457.00;5097994;28;20147;-93
2023/03/01 09:48:54;;;;;;;1.92;1.50;;;;;;;4.28;100.00;98449.97;5098095;28;20130;-94
2023/03/01 09:51:26;;;;;;;1.70;1.60;;;;;;;4.31;100.00;98476.25;5097029;28;20084;-94
2023/03/01 09:53:54;;;;;;;3.38;1.80;;;;;;;4.30;100.00;98456.09;5097381;28;20083;-94
2023/03/01 09:56:28;;;;;;;3.65;1.98;;;;;;;4.56;100.00;98471.69;5097284;28;20040;-95
2023/03/01 09:59:05;;;;;;;3.53;1.90;;;;;;;4.56;100.00;98481.38;5096634;28;20436;-94
2023/03/01 10:01:35;;;;;;;3.35;1.80;;;;;;;4.56;100.00;98482.22;5097680;28;20055;-94
2023/03/01 10:04:34;;;;;;;2.72;1.75;;;;;;;4.68;100.00;98479.50;5097707;28;20040;-94
2023/03/01 10:07:14;;;;;;;;;;;;;;;4.86;100.00;98482.88;5096235;28;20390;-92
2023/03/01 10:09:43;;;;;;;4.45;2.28;;;;;;;4.60;100.00;98468.16;5092516;28;20297;-92
2023/03/01 10:12:15;;;;;;;4.38;2.38;;;;;;;4.71;100.00;98471.56;5094890;28;20044;-92
2023/03/01 10:14:48;;;;;;;3.20;2.10;;;;;;;4.68;100.00;98482.16;5093172;28;20097;-93
2023/03/01 10:17:25;;;;;;;3.40;2.10;;;;;;;4.57;100.00;98465.53;5097348;28;20054;-92
2023/03/01 10:19:51;;;;;;;4.20;2.30;;;;;;;4.35;100.00;98488.50;5095227;28;20044;-93
2023/03/01 10:22:21;;;;;;;3.22;2.00;;;;;;;4.26;100.00;98465.75;5095456;28;20082;-93
2023/03/01 10:24:48;;;;;;;3.13;2.22;;;;;;;4.34;100.00;98481.53;5095398;28;20043;-94
2023/03/01 10:27:22;;;;;;;3.97;2.50;;;;;;;4.39;100.00;98469.19;5094569;28;20044;-93
2023/03/01 10:29:56;;;;;;;4.90;2.80;;;;;;;4.36;100.00;98478.84;5083477;28;20082;-94
2023/03/01 10:32:22;;;;;;;4.40;2.50;;;;;;;4.36;100.00;98465.69;5095043;28;20048;-94
2023/03/01 10:34:48;;;;;;;3.67;2.50;;;;;;;4.01;100.00;98456.28;5094316;28;20097;-93
2023/03/01 10:37:18;;;;;;;3.97;2.63;;;;;;;4.23;100.00;98483.31;5096206;28;20040;-93
2023/03/01 10:40:07;;;;;;;4.28;2.67;;;;;;;4.48;100.00;98474.38;5098126;28;20497;-94
2023/03/01 10:42:38;;;;;;;3.00;2.30;;;;;;;4.39;100.00;98463.06;5096337;28;20552;-93
2023/03/01 10:45:29;;;;;;;4.10;2.55;;;;;;;4.59;100.00;98460.25;5094756;28;20111;-92
2023/03/01 10:48:05;;;;;;;5.22;2.70;;;;;;;4.57;100.00;98462.91;5095082;28;20047;-92
2023/03/01 10:50:31;;;;;;;3.97;2.90;;;;;;;4.45;100.00;98458.63;5093784;28;20151;-93
2023/03/01 10:52:59;;;;;;;4.57;2.63;;;;;;;4.70;100.00;98480.34;5095008;28;20036;-95
2023/03/01 10:55:31;;;;;;;5.10;2.97;;;;;;;4.67;100.00;98484.78;5097714;28;20036;-92
2023/03/01 10:58:16;;;;;;;3.65;2.03;;;;;;;4.88;100.00;98487.25;5100396;28;20044;-91
2023/03/01 11:00:47;;;;;;;2.42;2.05;;;;;;;4.70;100.00;98464.53;5096767;28;20044;-91
2023/03/01 11:03:16;;;;;;;10.98;5.18;;;;;;;4.46;100.00;98465.63;5100692;28;20079;-93
2023/03/01 11:05:59;;;;;;;3.88;2.40;;;;;;;4.74;100.00;98470.66;5101204;28;20074;-93
2023/03/01 11:08:39;;;;;;;5.63;3.20;;;;;;;4.48;100.00;98474.38;5100129;28;20050;-93
2023/03/01 11:11:14;;;;;;;5.60;3.20;;;;;;;4.79;100.00;98486.44;5099791;28;20508;-95
2023/03/01 11:13:53;;;;;;;6.05;3.53;;;;;;;4.61;100.00;98472.53;5100283;28;20036;-94
2023/03/01 11:16:34;;;;;;;6.43;3.30;;;;;;;4.66;100.00;98460.22;5099379;28;20497;-92
2023/03/01 11:19:18;;;;;;;5.32;3.50;;;;;;;4.80;100.00;98469.75;5098944;28;20044;-92
2023/03/01 11:21:53;;;;;;;6.88;3.72;;;;;;;4.84;100.00;98458.31;5098027;28;20028;-92
2023/03/01 11:24:22;;;;;;;6.85;4.10;;;;;;;4.89;100.00;98462.63;5099032;28;20040;-91
2023/03/01 11:26:54;;;;;;;6.70;4.82;;;;;;;4.90;100.00;98439.78;5098856;28;20047;-95
2023/03/01 11:29:29;;;;;;;6.78;4.15;;;;;;;5.01;100.00;98459.03;5098127;28;20036;-93
2023/03/01 11:32:01;;;;;;;7.13;4.70;;;;;;;4.90;100.00;98434.50;5097475;28;20071;-94
2023/03/01 11:34:38;;;;;;;6.15;4.18;;;;;;;5.10;100.00;98455.41;5098373;28;20032;-94
2023/03/01 11:37:15;;;;;;;6.25;4.13;;;;;;;4.89;100.00;98445.94;5097465;28;20072;-92
2023/03/01 11:39:46;;;;;;;5.55;3.45;;;;;;;4.97;100.00;98443.25;5096384;28;20054;-93
2023/03/01 11:42:18;;;;;;;6.57;4.10;;;;;;;4.82;100.00;98404.75;5096837;28;20170;-91
2023/03/01 11:44:47;;;;;;;6.35;3.80;;;;;;;5.10;100.00;98416.75;5095107;28;20044;-93